Markyate, United Kingdom
Current Conditions -  °F | °C
As of 2:20 PM on Sunday 23 Nov 2014 (Local Time) from EGGW Reporting Station
Light Rain Light Rain  
Wind Chill: 37°   Ceiling: Unl
Heat Index: 43°   Visibility: 4mi
Dew Point: 43°   Wind: 10mph
Humidity: 100%   Direction: 340°NNW
Pressure: 30"   Gusts: NA
Location:  51.84°N, 0.46°W
Report Text: EGGW 231420Z 34009KT 7000 -RA SCT005 06/06 Q1016 RERA
Loading
Personal Weather Stations






























Interactive Weather Map New forecast layout! Learn more

10-Day Weather Forecast

Advertisements
Track Severe Weather on mobile